createdAt,value
2017-10-31T00:00:02.181Z,7.1
2017-10-31T00:01:04.204Z,7.1
2017-10-31T00:02:06.185Z,7.1
2017-10-31T00:03:08.381Z,7.2
2017-10-31T00:04:10.426Z,7.2
2017-10-31T00:05:12.443Z,7.2
2017-10-31T00:06:14.358Z,7.2
2017-10-31T00:07:16.413Z,7
2017-10-31T00:08:18.416Z,7.1
2017-10-31T00:09:20.391Z,7.1
2017-10-31T00:10:22.355Z,7.2
2017-10-31T00:11:24.339Z,7.1
2017-10-31T00:12:26.310Z,7
2017-10-31T00:13:28.396Z,7.1
2017-10-31T00:14:30.362Z,7
2017-10-31T00:15:32.336Z,7
2017-10-31T00:16:34.350Z,7
2017-10-31T00:17:36.441Z,6.9
2017-10-31T00:18:39.081Z,6.9
2017-10-31T00:19:41.111Z,6.9
2017-10-31T00:20:43.137Z,6.9
2017-10-31T00:21:45.093Z,6.9
2017-10-31T00:22:47.237Z,7
2017-10-31T00:23:49.293Z,6.9
2017-10-31T00:24:51.267Z,7
2017-10-31T00:25:53.225Z,6.8
2017-10-31T00:26:55.296Z,6.9
2017-10-31T00:27:57.439Z,7
2017-10-31T00:28:59.577Z,7
2017-10-31T00:30:01.630Z,6.9
2017-10-31T00:31:03.591Z,7
2017-10-31T00:32:05.725Z,6.9
2017-10-31T00:33:08.140Z,7
2017-10-31T00:34:10.181Z,6.9
2017-10-31T00:35:12.185Z,7
2017-10-31T00:36:14.182Z,7.1
2017-10-31T00:37:16.173Z,7.2
2017-10-31T00:38:18.577Z,7
2017-10-31T00:39:20.578Z,7.2
2017-10-31T00:40:22.640Z,7.2
2017-10-31T00:41:24.677Z,7
2017-10-31T00:42:26.710Z,7.1
2017-10-31T00:43:29.025Z,6.9
2017-10-31T00:44:31.075Z,6.9
2017-10-31T00:45:33.491Z,7.2
2017-10-31T00:46:35.486Z,7.1
2017-10-31T00:47:37.524Z,7.1
2017-10-31T00:48:39.564Z,6.9
2017-10-31T00:49:41.580Z,7
2017-10-31T00:50:43.614Z,6.9
2017-10-31T00:51:45.556Z,7.1
2017-10-31T00:52:47.623Z,6.9
2017-10-31T00:53:49.989Z,6.9
2017-10-31T00:54:52.008Z,7.1
2017-10-31T00:55:54.012Z,7
2017-10-31T00:56:56.127Z,7
2017-10-31T00:57:58.116Z,7.1
2017-10-31T00:59:00.453Z,7.1
2017-10-31T01:00:02.525Z,7.2
2017-10-31T01:01:04.593Z,7.1
2017-10-31T01:02:06.976Z,6.9
2017-10-31T01:03:09.284Z,7
2017-10-31T01:04:11.812Z,7.2
2017-10-31T01:05:13.905Z,7.1
2017-10-31T01:06:16.064Z,7
2017-10-31T01:07:18.126Z,7.2
2017-10-31T01:08:20.154Z,7.1
2017-10-31T01:09:22.417Z,7.1
2017-10-31T01:10:24.440Z,7.1
2017-10-31T01:11:26.453Z,6.9
2017-10-31T01:12:28.665Z,6.8
2017-10-31T01:13:30.707Z,6.8
2017-10-31T01:14:33.090Z,7
2017-10-31T01:15:35.112Z,6.8
2017-10-31T01:16:37.138Z,6.8
2017-10-31T01:17:39.052Z,7
2017-10-31T01:18:41.128Z,6.9
2017-10-31T01:19:43.546Z,6.8
2017-10-31T01:20:45.565Z,6.8
2017-10-31T01:21:47.707Z,6.8
2017-10-31T01:22:49.755Z,6.9
2017-10-31T01:23:51.794Z,6.8
2017-10-31T01:24:53.815Z,6.8
2017-10-31T01:25:56.073Z,6.8
2017-10-31T01:26:58.172Z,6.8
2017-10-31T01:28:00.318Z,6.7
2017-10-31T01:29:02.349Z,6.6
2017-10-31T01:30:04.315Z,6.6
2017-10-31T01:31:06.385Z,6.5
2017-10-31T01:32:08.413Z,6.6
2017-10-31T01:33:10.864Z,6.6
2017-10-31T01:34:12.910Z,6.7
2017-10-31T01:35:15.040Z,6.6
2017-10-31T01:36:17.159Z,6.7
2017-10-31T01:37:19.191Z,6.9
2017-10-31T01:38:21.181Z,6.7
2017-10-31T01:39:23.270Z,6.7
2017-10-31T01:40:25.447Z,6.6
2017-10-31T01:41:27.435Z,6.7
2017-10-31T01:42:29.455Z,6.6
2017-10-31T01:43:31.449Z,6.6
2017-10-31T01:44:33.571Z,6.5
2017-10-31T01:45:35.655Z,6.6
2017-10-31T01:46:37.665Z,6.6
2017-10-31T01:47:39.648Z,6.5
2017-10-31T01:48:41.567Z,6.7
2017-10-31T01:49:43.601Z,7
2017-10-31T01:50:45.662Z,7
2017-10-31T01:51:47.685Z,6.9
2017-10-31T01:52:49.654Z,6.8
2017-10-31T01:53:51.722Z,6.6
2017-10-31T01:54:53.697Z,6.6
2017-10-31T01:55:55.840Z,6.6
2017-10-31T01:56:57.983Z,6.7
2017-10-31T01:57:59.966Z,6.7
2017-10-31T01:59:02.099Z,6.6
2017-10-31T02:00:04.196Z,6.7
2017-10-31T02:01:06.562Z,6.6
2017-10-31T02:02:08.604Z,6.6
2017-10-31T02:03:10.758Z,6.6
2017-10-31T02:04:12.869Z,6.8
2017-10-31T02:05:15.031Z,6.6
2017-10-31T02:06:17.213Z,6.6
2017-10-31T02:07:19.279Z,6.6
2017-10-31T02:08:21.301Z,6.6
2017-10-31T02:09:23.262Z,6.6
2017-10-31T02:10:25.264Z,6.7
2017-10-31T02:11:27.597Z,6.7
2017-10-31T02:12:29.637Z,6.8
2017-10-31T02:13:31.723Z,6.8
2017-10-31T02:14:33.832Z,6.7
2017-10-31T02:15:35.785Z,6.9
2017-10-31T02:16:38.007Z,7
2017-10-31T02:17:39.968Z,7
2017-10-31T02:18:42.067Z,6.9
2017-10-31T02:19:44.102Z,6.7
2017-10-31T02:20:46.160Z,6.6
2017-10-31T02:21:48.519Z,6.8
2017-10-31T02:22:50.485Z,6.8
2017-10-31T02:23:52.471Z,6.7
2017-10-31T02:24:54.412Z,6.8
2017-10-31T02:25:56.396Z,6.7
2017-10-31T02:26:58.373Z,6.6
2017-10-31T02:28:00.348Z,6.5
2017-10-31T02:29:02.375Z,6.5
2017-10-31T02:30:04.346Z,6.6
2017-10-31T02:31:06.437Z,6.9
2017-10-31T02:32:08.497Z,6.7
2017-10-31T02:33:10.500Z,6.7
2017-10-31T02:34:12.394Z,6.8
2017-10-31T02:35:14.422Z,6.7
2017-10-31T02:36:16.362Z,6.8
2017-10-31T02:37:18.386Z,6.6
2017-10-31T02:38:20.316Z,6.8
2017-10-31T02:39:22.280Z,6.8
2017-10-31T02:40:24.292Z,6.7
2017-10-31T02:41:26.326Z,6.8
2017-10-31T02:42:28.608Z,6.7
2017-10-31T02:43:30.616Z,6.7
2017-10-31T02:44:32.545Z,6.7
2017-10-31T02:45:34.521Z,6.8
2017-10-31T02:46:36.402Z,6.9
2017-10-31T02:47:38.694Z,6.8
2017-10-31T02:48:40.718Z,6.7
2017-10-31T02:49:42.774Z,6.7
2017-10-31T02:50:44.961Z,6.7
2017-10-31T02:51:47.098Z,6.7
2017-10-31T02:52:49.778Z,6.6
2017-10-31T02:53:51.812Z,6.8
2017-10-31T02:54:53.983Z,6.9
2017-10-31T02:55:56.148Z,6.7
2017-10-31T02:56:58.268Z,6.8
2017-10-31T02:58:00.274Z,6.7
2017-10-31T02:59:02.234Z,6.7
2017-10-31T03:00:04.225Z,6.6
2017-10-31T03:01:06.191Z,6.6
2017-10-31T03:02:08.294Z,7
2017-10-31T03:03:10.323Z,7
2017-10-31T03:04:12.330Z,6.7
2017-10-31T03:05:14.340Z,6.8
2017-10-31T03:06:16.330Z,6.7
2017-10-31T03:07:18.389Z,6.6
2017-10-31T03:08:20.411Z,6.7
2017-10-31T03:09:22.501Z,6.6
2017-10-31T03:10:24.488Z,6.7
2017-10-31T03:11:26.602Z,6.6
2017-10-31T03:12:28.645Z,6.6
2017-10-31T03:13:30.705Z,6.6
2017-10-31T03:14:32.713Z,6.5
2017-10-31T03:15:34.770Z,6.4
2017-10-31T03:16:36.810Z,6.4
2017-10-31T03:17:38.848Z,6.3
2017-10-31T03:18:40.868Z,6.5
2017-10-31T03:19:42.857Z,6.4
2017-10-31T03:20:44.966Z,6.4
2017-10-31T03:21:47.027Z,6.3
2017-10-31T03:22:49.028Z,6.2
2017-10-31T03:23:51.370Z,6.2
2017-10-31T03:24:53.336Z,6.5
2017-10-31T03:25:55.316Z,6.4
2017-10-31T03:26:57.404Z,6.3
2017-10-31T03:27:59.400Z,6.6
2017-10-31T03:29:01.484Z,6.6
2017-10-31T03:30:03.837Z,6.4
2017-10-31T03:31:05.951Z,6.4
2017-10-31T03:32:07.943Z,6.4
2017-10-31T03:33:10.061Z,6.5
2017-10-31T03:34:12.052Z,6.4
2017-10-31T03:35:14.045Z,6.4
2017-10-31T03:36:15.981Z,6.5
2017-10-31T03:37:17.972Z,6.4
2017-10-31T03:38:19.998Z,6.4
2017-10-31T03:39:22.133Z,6.3
2017-10-31T03:40:24.225Z,6.3
2017-10-31T03:41:26.243Z,6.3
2017-10-31T03:42:28.320Z,6.4
2017-10-31T03:43:30.453Z,6.4
2017-10-31T03:44:32.492Z,6.4
2017-10-31T03:45:34.527Z,6.5
2017-10-31T03:46:36.520Z,6.4
2017-10-31T03:47:38.599Z,6.4
2017-10-31T03:48:40.653Z,6.4
2017-10-31T03:49:42.799Z,6.4
2017-10-31T03:50:44.754Z,6.4
2017-10-31T03:51:46.825Z,6.4
2017-10-31T03:52:48.917Z,6.4
2017-10-31T03:53:50.951Z,6.4
2017-10-31T03:54:53.299Z,6.3
2017-10-31T03:55:55.334Z,6.3
2017-10-31T03:56:57.345Z,6.3
2017-10-31T03:57:59.459Z,6.3
2017-10-31T03:59:01.519Z,6.4
2017-10-31T04:00:04.405Z,6.4
2017-10-31T04:01:06.474Z,6.4
2017-10-31T04:02:08.457Z,6.5
2017-10-31T04:03:10.480Z,6.6
2017-10-31T04:04:12.508Z,6.7
2017-10-31T04:05:14.674Z,6.7
2017-10-31T04:06:16.831Z,6.5
2017-10-31T04:07:18.957Z,6.5
2017-10-31T04:08:21.068Z,6.5
2017-10-31T04:09:23.177Z,6.5
2017-10-31T04:10:25.268Z,6.5
2017-10-31T04:11:27.312Z,6.5
2017-10-31T04:12:29.425Z,6.7
2017-10-31T04:13:31.440Z,6.6
2017-10-31T04:14:33.456Z,6.5
2017-10-31T04:15:35.573Z,6.5
2017-10-31T04:16:37.612Z,6.5
2017-10-31T04:17:39.652Z,6.4
2017-10-31T04:18:41.546Z,6.4
2017-10-31T04:19:43.442Z,6.6
2017-10-31T04:20:45.324Z,6.5
2017-10-31T04:21:47.327Z,6.4
2017-10-31T04:22:49.446Z,6.4
2017-10-31T04:23:51.687Z,6.5
2017-10-31T04:24:53.721Z,6.5
2017-10-31T04:25:55.802Z,6.5
2017-10-31T04:26:57.787Z,6.4
2017-10-31T04:27:59.742Z,6.3
2017-10-31T04:29:01.683Z,6.4
2017-10-31T04:30:03.527Z,6.3
2017-10-31T04:31:05.807Z,6.4
2017-10-31T04:32:07.686Z,6.2
2017-10-31T04:33:09.670Z,6.3
2017-10-31T04:34:11.670Z,6.3
2017-10-31T04:35:13.686Z,6.3
2017-10-31T04:36:16.032Z,6.3
2017-10-31T04:37:18.052Z,6.3
2017-10-31T04:38:20.067Z,6.4
2017-10-31T04:39:22.110Z,6.5
2017-10-31T04:40:24.243Z,6.4
2017-10-31T04:41:26.300Z,6.4
2017-10-31T04:42:28.384Z,6.4
2017-10-31T04:43:30.428Z,6.5
2017-10-31T04:44:32.408Z,6.6
2017-10-31T04:45:34.475Z,6.8
2017-10-31T04:46:36.659Z,6.6
2017-10-31T04:47:38.821Z,6.5
2017-10-31T04:48:40.935Z,6.5
2017-10-31T04:49:43.066Z,6.4
2017-10-31T04:50:45.043Z,6.4
2017-10-31T04:51:47.009Z,6.3
2017-10-31T04:52:49.042Z,6.4
2017-10-31T04:53:51.043Z,6.4
2017-10-31T04:54:53.064Z,6.4
2017-10-31T04:55:55.003Z,6.5
2017-10-31T04:56:56.992Z,6.5
2017-10-31T04:57:59.002Z,6.4
2017-10-31T04:59:00.885Z,6.3
2017-10-31T05:00:02.772Z,6.4
2017-10-31T05:01:04.890Z,6.5
2017-10-31T05:02:07.348Z,6.7
2017-10-31T05:03:09.525Z,6.6
2017-10-31T05:04:11.635Z,6.6
2017-10-31T05:05:13.772Z,6.6
2017-10-31T05:06:15.879Z,6.6
2017-10-31T05:07:18.255Z,6.6
2017-10-31T05:08:20.359Z,6.7
2017-10-31T05:09:22.377Z,6.5
2017-10-31T05:10:24.365Z,6.6
2017-10-31T05:11:26.564Z,6.5
2017-10-31T05:12:29.024Z,6.7
2017-10-31T05:13:31.034Z,6.6
2017-10-31T05:14:33.012Z,6.7
2017-10-31T05:15:35.009Z,6.6
2017-10-31T05:16:36.968Z,6.7
2017-10-31T05:17:39.197Z,6.7
2017-10-31T05:18:41.243Z,6.7
2017-10-31T05:19:43.200Z,6.8
2017-10-31T05:20:45.205Z,6.8
2017-10-31T05:21:47.141Z,6.9
2017-10-31T05:22:49.380Z,6.9
2017-10-31T05:23:51.446Z,6.8
2017-10-31T05:24:53.533Z,6.8
2017-10-31T05:25:55.642Z,6.8
2017-10-31T05:26:57.746Z,6.9
2017-10-31T05:27:59.788Z,7
2017-10-31T05:29:01.740Z,6.8
2017-10-31T05:30:03.664Z,6.9
2017-10-31T05:31:05.548Z,6.8
2017-10-31T05:32:07.617Z,6.9
2017-10-31T05:33:09.687Z,7
2017-10-31T05:34:11.668Z,7
2017-10-31T05:35:13.697Z,7
2017-10-31T05:36:15.879Z,7
2017-10-31T05:37:17.978Z,6.8
2017-10-31T05:38:20.052Z,6.8
2017-10-31T05:39:22.144Z,6.8
2017-10-31T05:40:24.318Z,6.7
2017-10-31T05:41:26.357Z,6.7
2017-10-31T05:42:28.355Z,6.8
2017-10-31T05:43:30.418Z,6.8
2017-10-31T05:44:32.483Z,6.8
2017-10-31T05:45:34.448Z,6.7
2017-10-31T05:46:36.373Z,6.8
2017-10-31T05:47:38.256Z,6.8
2017-10-31T05:48:40.605Z,6.8
2017-10-31T05:49:42.733Z,6.8
2017-10-31T05:50:44.752Z,6.8
2017-10-31T05:51:46.826Z,6.7
2017-10-31T05:52:48.810Z,6.7
2017-10-31T05:53:50.789Z,6.7
2017-10-31T05:54:52.972Z,6.8
2017-10-31T05:55:54.932Z,6.8
2017-10-31T05:56:57.085Z,6.8
2017-10-31T05:57:59.144Z,6.8
2017-10-31T05:59:01.543Z,6.8
2017-10-31T06:00:03.532Z,6.9
2017-10-31T06:01:05.534Z,6.8
2017-10-31T06:02:07.604Z,7
2017-10-31T06:03:09.657Z,7.1
2017-10-31T06:04:12.118Z,6.9
2017-10-31T06:05:14.137Z,6.8
2017-10-31T06:06:16.294Z,6.8
2017-10-31T06:07:18.458Z,6.8
2017-10-31T06:08:20.592Z,6.9
2017-10-31T06:09:23.038Z,6.8
2017-10-31T06:10:25.114Z,6.8
2017-10-31T06:11:27.232Z,6.8
2017-10-31T06:12:29.272Z,6.7
2017-10-31T06:13:31.349Z,6.8
2017-10-31T06:14:33.355Z,6.8
2017-10-31T06:15:35.326Z,6.8
2017-10-31T06:16:37.268Z,6.7
2017-10-31T06:17:39.238Z,6.8
2017-10-31T06:18:41.248Z,6.8
2017-10-31T06:19:43.322Z,6.7
2017-10-31T06:20:45.277Z,6.8
2017-10-31T06:21:47.312Z,6.9
2017-10-31T06:22:49.521Z,6.8
2017-10-31T06:23:51.712Z,6.8
2017-10-31T06:24:53.786Z,6.9
2017-10-31T06:25:55.853Z,6.8
2017-10-31T06:26:57.966Z,6.8
2017-10-31T06:27:59.995Z,6.8
2017-10-31T06:29:02.111Z,6.8
2017-10-31T06:30:04.212Z,6.8
2017-10-31T06:31:06.328Z,6.8
2017-10-31T06:32:08.455Z,6.8
2017-10-31T06:33:10.575Z,6.8
2017-10-31T06:34:12.588Z,6.8
2017-10-31T06:35:15.037Z,6.8
2017-10-31T06:36:17.025Z,6.8
2017-10-31T06:37:19.085Z,7
2017-10-31T06:38:21.076Z,6.9
2017-10-31T06:39:23.423Z,7
2017-10-31T06:40:25.786Z,7.1
2017-10-31T06:41:27.826Z,7
2017-10-31T06:42:29.891Z,7
2017-10-31T06:43:31.967Z,7
2017-10-31T06:44:34.082Z,6.9
2017-10-31T06:45:36.419Z,6.9
2017-10-31T06:46:38.444Z,6.9
2017-10-31T06:47:40.570Z,6.8
2017-10-31T06:48:42.629Z,6.9
2017-10-31T06:49:44.603Z,6.9
2017-10-31T06:50:46.805Z,6.9
2017-10-31T06:51:48.795Z,6.9
2017-10-31T06:52:50.840Z,6.8
2017-10-31T06:53:53.041Z,6.9
2017-10-31T06:54:55.072Z,6.9
2017-10-31T06:55:57.398Z,6.9
2017-10-31T06:56:59.405Z,7
2017-10-31T06:58:01.284Z,6.9
2017-10-31T06:59:03.238Z,7
2017-10-31T07:00:05.285Z,6.9
2017-10-31T07:01:07.272Z,7
2017-10-31T07:02:09.350Z,6.9
2017-10-31T07:03:11.392Z,7
2017-10-31T07:04:13.415Z,6.9
2017-10-31T07:05:15.400Z,7
2017-10-31T07:06:17.903Z,7.2
2017-10-31T07:07:20.191Z,7.1
2017-10-31T07:08:22.324Z,7.1
2017-10-31T07:09:24.286Z,7.1
2017-10-31T07:10:26.329Z,7.1
2017-10-31T07:11:28.437Z,7.1
2017-10-31T07:12:30.580Z,7.1
2017-10-31T07:13:32.565Z,7.2
2017-10-31T07:14:34.567Z,7.2
2017-10-31T07:15:36.561Z,7.1
2017-10-31T07:16:38.548Z,7.2
2017-10-31T07:17:40.518Z,7.3
2017-10-31T07:18:42.454Z,7.4
2017-10-31T07:19:44.489Z,7.3
2017-10-31T07:20:46.480Z,7.3
2017-10-31T07:21:48.697Z,7.4
2017-10-31T07:22:50.815Z,7.4
2017-10-31T07:23:52.892Z,7.3
2017-10-31T07:24:55.009Z,7.3
2017-10-31T07:25:57.121Z,7.4
2017-10-31T07:26:59.632Z,7.3
2017-10-31T07:28:01.790Z,7.4
2017-10-31T07:29:03.817Z,7.3
2017-10-31T07:30:05.865Z,7.3
2017-10-31T07:31:07.994Z,7.6
2017-10-31T07:32:10.038Z,7.5
2017-10-31T07:33:12.120Z,7.4
2017-10-31T07:34:14.246Z,7.4
2017-10-31T07:35:16.272Z,7.4
2017-10-31T07:36:18.430Z,7.4
2017-10-31T07:37:20.742Z,7.4
2017-10-31T07:38:22.698Z,7.5
2017-10-31T07:39:24.738Z,7.6
2017-10-31T07:40:26.807Z,7.5
2017-10-31T07:41:28.979Z,7.4
2017-10-31T07:42:31.379Z,7.3
2017-10-31T07:43:33.417Z,7.4
2017-10-31T07:44:35.517Z,7.4
2017-10-31T07:45:37.482Z,7.3
2017-10-31T07:46:39.582Z,7.4
2017-10-31T07:47:42.122Z,7.4
2017-10-31T07:48:44.114Z,7.5
2017-10-31T07:49:46.116Z,7.7
2017-10-31T07:50:48.117Z,7.7
2017-10-31T07:51:50.115Z,7.6
2017-10-31T07:52:52.071Z,7.6
2017-10-31T07:53:54.015Z,7.6
2017-10-31T07:54:56.119Z,7.6
2017-10-31T07:55:58.078Z,7.8
2017-10-31T07:57:00.091Z,7.8
2017-10-31T07:58:02.198Z,7.6
2017-10-31T07:59:04.642Z,7.7
2017-10-31T08:00:06.698Z,7.6
2017-10-31T08:01:09.277Z,7.5
2017-10-31T08:02:11.269Z,7.5
2017-10-31T08:03:13.312Z,7.5
2017-10-31T08:04:15.305Z,7.6
2017-10-31T08:05:17.463Z,7.6
2017-10-31T08:06:19.527Z,7.6
2017-10-31T08:07:21.707Z,7.5
2017-10-31T08:08:23.734Z,7.5
2017-10-31T08:09:25.713Z,7.5
2017-10-31T08:10:27.876Z,7.5
2017-10-31T08:11:29.855Z,7.5
2017-10-31T08:12:31.875Z,7.6
2017-10-31T08:13:33.897Z,7.6
2017-10-31T08:14:35.856Z,7.6
2017-10-31T08:15:37.794Z,7.5
2017-10-31T08:16:39.785Z,7.5
2017-10-31T08:17:41.792Z,7.6
2017-10-31T08:18:43.763Z,7.6
2017-10-31T08:19:45.717Z,7.7
2017-10-31T08:20:47.719Z,7.6
2017-10-31T08:21:49.900Z,7.7
2017-10-31T08:22:51.843Z,7.7
2017-10-31T08:23:53.984Z,7.7
2017-10-31T08:24:56.104Z,7.7
2017-10-31T08:25:58.236Z,7.8
2017-10-31T08:27:00.307Z,7.7
2017-10-31T08:28:02.352Z,7.7
2017-10-31T08:29:04.464Z,7.7
2017-10-31T08:30:06.529Z,7.7
2017-10-31T08:31:08.513Z,7.8
2017-10-31T08:32:10.476Z,7.7
2017-10-31T08:33:12.742Z,7.7
2017-10-31T08:34:14.836Z,7.7
2017-10-31T08:35:17.513Z,7.6
2017-10-31T08:36:19.678Z,7.6
2017-10-31T08:37:21.724Z,7.7
2017-10-31T08:38:24.226Z,7.7
2017-10-31T08:39:26.347Z,7.7
2017-10-31T08:40:28.411Z,7.7
2017-10-31T08:41:30.700Z,7.8
2017-10-31T08:42:32.691Z,7.8
2017-10-31T08:43:34.672Z,7.8
2017-10-31T08:44:36.754Z,7.8
2017-10-31T08:45:38.911Z,7.9
2017-10-31T08:46:40.877Z,7.8
2017-10-31T08:47:43.171Z,7.8
2017-10-31T08:48:45.591Z,8
2017-10-31T08:49:47.903Z,8
2017-10-31T08:50:49.815Z,8.1
2017-10-31T08:51:51.896Z,8.1
2017-10-31T08:52:53.941Z,8.2
2017-10-31T08:53:56.027Z,8.2
2017-10-31T08:54:58.076Z,8.3
2017-10-31T08:56:00.241Z,8.7
2017-10-31T08:57:02.165Z,8.8
2017-10-31T08:58:04.144Z,8.8
2017-10-31T08:59:06.234Z,8.8
2017-10-31T09:00:08.561Z,9
2017-10-31T09:01:10.624Z,8.8
2017-10-31T09:02:12.760Z,8.7
2017-10-31T09:03:14.712Z,8.6
2017-10-31T09:04:16.735Z,8.6
2017-10-31T09:05:18.724Z,8.5
2017-10-31T09:06:20.767Z,8.5
2017-10-31T09:07:22.865Z,8.4
2017-10-31T09:08:25.026Z,8.5
2017-10-31T09:09:27.024Z,8.4
2017-10-31T09:10:29.390Z,8.4
2017-10-31T09:11:31.521Z,8.3
2017-10-31T09:12:33.633Z,8.2
2017-10-31T09:13:35.612Z,8.3
2017-10-31T09:14:37.645Z,8.3
2017-10-31T09:15:39.926Z,8.2
2017-10-31T09:16:41.909Z,8.5
2017-10-31T09:17:43.972Z,8.4
2017-10-31T09:18:45.938Z,8.4
2017-10-31T09:19:47.925Z,8.3
2017-10-31T09:20:49.979Z,8.4
2017-10-31T09:21:52.196Z,8.6
2017-10-31T09:22:54.249Z,8.6
2017-10-31T09:23:56.294Z,8.4
2017-10-31T09:24:58.318Z,8.5
2017-10-31T09:26:00.679Z,8.4
2017-10-31T09:27:02.666Z,8.4
2017-10-31T09:28:04.753Z,8.4
2017-10-31T09:29:06.754Z,8.3
2017-10-31T09:30:08.832Z,8.3
2017-10-31T09:31:11.237Z,8.3
2017-10-31T09:32:13.366Z,8.3
2017-10-31T09:33:15.545Z,8.3
2017-10-31T09:34:17.512Z,8.5
2017-10-31T09:35:19.619Z,8.5
2017-10-31T09:36:21.703Z,8.4
2017-10-31T09:37:23.833Z,8.4
2017-10-31T09:38:25.853Z,8.4
2017-10-31T09:39:27.934Z,8.5
2017-10-31T09:40:29.998Z,8.6
2017-10-31T09:41:32.038Z,8.6
2017-10-31T09:42:34.089Z,8.5
2017-10-31T09:43:36.102Z,8.6
2017-10-31T09:44:38.047Z,8.7
2017-10-31T09:45:40.214Z,8.6
2017-10-31T09:46:42.356Z,8.6
2017-10-31T09:47:44.373Z,8.6
2017-10-31T09:48:46.449Z,8.6
2017-10-31T09:49:48.462Z,8.5
2017-10-31T09:50:50.433Z,8.6
2017-10-31T09:51:52.422Z,8.5
2017-10-31T09:52:54.732Z,8.5
2017-10-31T09:53:56.726Z,8.5
2017-10-31T09:54:58.685Z,8.5
2017-10-31T09:56:00.642Z,8.8
2017-10-31T09:57:02.732Z,8.9
2017-10-31T09:58:04.789Z,8.9
2017-10-31T09:59:06.835Z,8.8
2017-10-31T10:00:08.927Z,8.6
2017-10-31T10:01:11.060Z,8.6
2017-10-31T10:02:13.287Z,8.7
2017-10-31T10:03:15.321Z,8.8
2017-10-31T10:04:17.384Z,8.7
2017-10-31T10:05:19.452Z,8.7
2017-10-31T10:06:21.496Z,8.9
2017-10-31T10:07:23.707Z,9
2017-10-31T10:08:25.756Z,9.1
2017-10-31T10:09:27.715Z,9.1
2017-10-31T10:10:29.800Z,9
2017-10-31T10:11:31.911Z,8.7
2017-10-31T10:12:33.990Z,8.6
2017-10-31T10:13:36.126Z,8.7
2017-10-31T10:14:38.247Z,8.7
2017-10-31T10:15:40.308Z,8.6
2017-10-31T10:16:42.454Z,8.8
2017-10-31T10:17:44.519Z,8.8
2017-10-31T10:18:46.572Z,9
2017-10-31T10:19:48.596Z,8.7
2017-10-31T10:20:50.770Z,8.6
2017-10-31T10:21:52.852Z,8.6
2017-10-31T10:22:54.948Z,8.7
2017-10-31T10:23:57.083Z,8.4
2017-10-31T10:24:59.533Z,8.4
2017-10-31T10:26:01.592Z,8.5
2017-10-31T10:27:03.585Z,8.6
2017-10-31T10:28:05.795Z,8.6
2017-10-31T10:29:07.833Z,8.6
2017-10-31T10:30:09.911Z,8.7
2017-10-31T10:31:12.028Z,8.9
2017-10-31T10:32:14.025Z,8.8
2017-10-31T10:33:16.195Z,8.9
2017-10-31T10:34:18.183Z,8.7
2017-10-31T10:35:20.426Z,8.6
2017-10-31T10:36:22.477Z,8.9
2017-10-31T10:37:24.446Z,8.8
2017-10-31T10:38:26.514Z,8.7
2017-10-31T10:39:28.527Z,8.8
2017-10-31T10:40:30.551Z,8.8
2017-10-31T10:41:32.630Z,8.9
2017-10-31T10:42:34.634Z,8.9
2017-10-31T10:43:36.692Z,8.8
2017-10-31T10:44:38.761Z,8.7
2017-10-31T10:45:40.940Z,8.7
2017-10-31T10:46:43.028Z,8.8
2017-10-31T10:47:45.126Z,8.9
2017-10-31T10:48:47.246Z,8.8
2017-10-31T10:49:49.243Z,8.8
2017-10-31T10:50:51.260Z,8.8
2017-10-31T10:51:53.340Z,8.7
2017-10-31T10:52:55.287Z,8.6
2017-10-31T10:53:57.360Z,8.6
2017-10-31T10:54:59.377Z,8.6
2017-10-31T10:56:01.480Z,8.6
2017-10-31T10:57:03.506Z,8.6
2017-10-31T10:58:05.490Z,8.6
2017-10-31T10:59:07.566Z,8.5
2017-10-31T11:00:09.830Z,8.6
2017-10-31T11:01:11.843Z,8.7
2017-10-31T11:02:13.991Z,8.8
2017-10-31T11:03:16.064Z,8.8
2017-10-31T11:04:18.138Z,8.8
2017-10-31T11:05:20.136Z,8.9
2017-10-31T11:06:22.194Z,8.9
2017-10-31T11:07:24.237Z,8.9
2017-10-31T11:08:26.225Z,8.9
2017-10-31T11:09:28.265Z,9
2017-10-31T11:10:30.247Z,9.1
2017-10-31T11:11:32.205Z,9.1
2017-10-31T11:12:34.203Z,9.2
2017-10-31T11:13:36.225Z,9.3
2017-10-31T11:14:38.267Z,9.3
2017-10-31T11:15:40.356Z,9.2
2017-10-31T11:16:42.639Z,9.3
2017-10-31T11:17:44.784Z,9.3
2017-10-31T11:18:46.924Z,9.3
2017-10-31T11:19:49.026Z,9.3
2017-10-31T11:20:51.087Z,9.4
2017-10-31T11:21:53.135Z,9.3
2017-10-31T11:22:55.145Z,9.3
2017-10-31T11:23:57.186Z,9.2
2017-10-31T11:24:59.261Z,9.2
2017-10-31T11:26:01.317Z,9.3
2017-10-31T11:27:03.341Z,9.3
2017-10-31T11:28:05.369Z,9.3
2017-10-31T11:29:07.409Z,9.4
2017-10-31T11:30:09.586Z,9.4
2017-10-31T11:31:11.585Z,9.4
2017-10-31T11:32:13.717Z,9.2
2017-10-31T11:33:15.830Z,9.4
2017-10-31T11:34:18.131Z,9.3
2017-10-31T11:35:20.348Z,9.3
2017-10-31T11:36:22.405Z,9.2
2017-10-31T11:37:24.602Z,9.2
2017-10-31T11:38:26.629Z,9.2
2017-10-31T11:39:28.698Z,9.3
2017-10-31T11:40:30.689Z,9.3
2017-10-31T11:41:32.726Z,9.4
2017-10-31T11:42:34.780Z,9.4
2017-10-31T11:43:36.818Z,9.4
2017-10-31T11:44:38.867Z,9.5
2017-10-31T11:45:40.924Z,9.5
2017-10-31T11:46:42.915Z,9.4
2017-10-31T11:47:45.048Z,9.4
2017-10-31T11:48:47.044Z,9.4
2017-10-31T11:49:49.112Z,9.4
2017-10-31T11:50:51.101Z,9.5
2017-10-31T11:51:53.115Z,9.5
2017-10-31T11:52:55.102Z,9.5
2017-10-31T11:53:56.997Z,9.5
2017-10-31T11:54:59.984Z,9.6
2017-10-31T11:56:02.240Z,9.7
2017-10-31T11:57:04.389Z,9.8
2017-10-31T11:58:06.831Z,10
2017-10-31T11:59:08.970Z,9.9
2017-10-31T12:00:11.575Z,9.7
2017-10-31T12:01:13.743Z,9.8
2017-10-31T12:02:15.973Z,9.6
2017-10-31T12:03:18.007Z,9.7
2017-10-31T12:04:20.155Z,9.8
2017-10-31T12:05:22.533Z,9.7
2017-10-31T12:06:24.771Z,9.7
2017-10-31T12:07:27.014Z,9.9
2017-10-31T12:08:29.258Z,9.9
2017-10-31T12:09:31.311Z,9.7
2017-10-31T12:10:33.391Z,9.6
2017-10-31T12:11:35.435Z,9.7
2017-10-31T12:12:37.585Z,9.9
2017-10-31T12:13:39.708Z,9.9
2017-10-31T12:14:41.652Z,9.9
2017-10-31T12:15:43.624Z,9.9
2017-10-31T12:16:45.618Z,9.8
2017-10-31T12:17:47.636Z,9.9
2017-10-31T12:18:49.603Z,9.7
2017-10-31T12:19:51.653Z,9.7
2017-10-31T12:20:53.659Z,9.7
2017-10-31T12:21:55.686Z,9.6
2017-10-31T12:22:57.689Z,9.6
2017-10-31T12:23:59.650Z,9.6
2017-10-31T12:25:01.636Z,9.6
2017-10-31T12:26:03.594Z,9.6
2017-10-31T12:27:05.858Z,9.7
2017-10-31T12:28:08.362Z,9.7
2017-10-31T12:29:10.369Z,9.6
2017-10-31T12:30:12.401Z,9.6
2017-10-31T12:31:14.683Z,9.6
2017-10-31T12:32:17.051Z,9.6
2017-10-31T12:33:19.092Z,9.8
2017-10-31T12:34:21.030Z,9.7
2017-10-31T12:35:23.068Z,9.7
2017-10-31T12:36:25.313Z,9.7
2017-10-31T12:37:27.849Z,9.7
2017-10-31T12:38:29.909Z,9.5
2017-10-31T12:39:31.949Z,9.5
2017-10-31T12:40:33.950Z,9.6
2017-10-31T12:41:35.993Z,9.6
2017-10-31T12:42:38.008Z,9.5
2017-10-31T12:43:39.933Z,9.4
2017-10-31T12:44:41.930Z,9.4
2017-10-31T12:45:43.934Z,9.4
2017-10-31T12:46:45.921Z,9.5
2017-10-31T12:47:48.231Z,9.5
2017-10-31T12:48:50.270Z,9.5
2017-10-31T12:49:52.295Z,9.4
2017-10-31T12:50:54.315Z,9.4
2017-10-31T12:51:56.317Z,9.3
2017-10-31T12:52:58.295Z,9.3
2017-10-31T12:54:00.196Z,9.4
2017-10-31T12:55:02.166Z,9.4
2017-10-31T12:56:04.228Z,9.4
2017-10-31T12:57:06.186Z,9.4
2017-10-31T12:58:08.175Z,9.4
2017-10-31T12:59:10.132Z,9.4
2017-10-31T13:00:12.219Z,9.4
2017-10-31T13:01:14.192Z,9.4
2017-10-31T13:02:16.217Z,9.4
2017-10-31T13:03:18.300Z,9.3
2017-10-31T13:04:20.238Z,9.3
2017-10-31T13:05:22.195Z,9.3
2017-10-31T13:06:24.153Z,9.3
2017-10-31T13:07:26.163Z,9.3
2017-10-31T13:08:28.467Z,9.3
2017-10-31T13:09:30.383Z,9.3
2017-10-31T13:10:32.727Z,9.4
2017-10-31T13:11:35.457Z,9.4
2017-10-31T13:12:37.877Z,9.3
2017-10-31T13:13:40.697Z,9.3
2017-10-31T13:14:43.293Z,9.3
2017-10-31T13:15:45.599Z,9.4
2017-10-31T13:16:47.557Z,9.4
2017-10-31T13:17:49.537Z,9.4
2017-10-31T13:18:51.457Z,9.4
2017-10-31T13:19:53.397Z,9.4
2017-10-31T13:20:55.338Z,9.4
2017-10-31T13:21:57.333Z,9.4
2017-10-31T13:22:59.283Z,9.3
2017-10-31T13:24:01.298Z,9.4
2017-10-31T13:25:03.208Z,9.3
2017-10-31T13:26:05.226Z,9.2
2017-10-31T13:27:07.613Z,9.3
2017-10-31T13:28:09.774Z,9.4
2017-10-31T13:29:12.081Z,9.3
2017-10-31T13:30:14.179Z,9.3
2017-10-31T13:31:16.177Z,9.3
2017-10-31T13:32:18.140Z,9.3
2017-10-31T13:33:20.096Z,9.3
2017-10-31T13:34:22.380Z,9.3
2017-10-31T13:35:24.359Z,9.3
2017-10-31T13:36:26.353Z,9.4
2017-10-31T13:37:28.357Z,9.2
2017-10-31T13:38:30.299Z,9.2
2017-10-31T13:39:32.630Z,9.1
2017-10-31T13:40:34.590Z,9.2
2017-10-31T13:41:36.599Z,9.3
2017-10-31T13:42:38.652Z,9.2
2017-10-31T13:43:40.663Z,9.3
2017-10-31T13:44:43.030Z,9.2
2017-10-31T13:45:44.966Z,9.2
2017-10-31T13:46:46.935Z,9.1
2017-10-31T13:47:48.925Z,9.2
2017-10-31T13:48:50.894Z,9.1
2017-10-31T13:49:52.873Z,9.1
2017-10-31T13:50:54.940Z,9.1
2017-10-31T13:51:56.942Z,9.1
2017-10-31T13:52:58.977Z,9.2
2017-10-31T13:54:01.015Z,9.2
2017-10-31T13:55:03.434Z,9.1
2017-10-31T13:56:05.420Z,9.1
2017-10-31T13:57:07.374Z,9.1
2017-10-31T13:58:09.341Z,9.1
2017-10-31T13:59:11.505Z,9.2
2017-10-31T14:00:13.871Z,9.1
2017-10-31T14:01:15.884Z,9.1
2017-10-31T14:02:17.926Z,9.1
2017-10-31T14:03:19.857Z,9.1
2017-10-31T14:04:21.801Z,9.1
2017-10-31T14:05:24.028Z,9
2017-10-31T14:06:25.913Z,9
2017-10-31T14:07:27.861Z,9.1
2017-10-31T14:08:29.898Z,8.9
2017-10-31T14:09:31.804Z,8.9
2017-10-31T14:10:34.141Z,8.9
2017-10-31T14:11:36.242Z,8.9
2017-10-31T14:12:38.390Z,8.9
2017-10-31T14:13:40.324Z,8.9
2017-10-31T14:14:42.243Z,8.9
2017-10-31T14:15:44.540Z,8.9
2017-10-31T14:16:46.486Z,8.9
2017-10-31T14:17:48.648Z,8.9